createdAt,value
2022-08-17T04:28:04.796Z,20.299999
2022-08-17T04:30:22.095Z,20.34
2022-08-17T04:32:58.663Z,20.42
2022-08-17T04:34:54.061Z,20.549999
2022-08-17T04:37:08.472Z,20.709999
2022-08-17T04:39:23.984Z,20.870001
2022-08-17T04:41:38.247Z,21.02
2022-08-17T04:43:53.689Z,21.129999
2022-08-17T04:46:09.069Z,21.200001
2022-08-17T04:48:23.607Z,21.27
2022-08-17T04:50:40.877Z,21.34
2022-08-17T04:52:55.571Z,21.42
2022-08-17T04:55:09.820Z,21.49
2022-08-17T04:57:24.186Z,21.540001
2022-08-17T04:59:40.804Z,21.58
2022-08-17T05:02:02.244Z,21.6
2022-08-17T05:04:21.523Z,21.629999
2022-08-17T05:06:34.691Z,21.67
2022-08-17T05:08:49.178Z,21.690001
2022-08-17T05:11:03.656Z,21.709999
2022-08-17T05:13:18.164Z,21.719999
2022-08-17T05:15:33.081Z,21.73
2022-08-17T05:17:49.020Z,21.73
2022-08-17T05:20:03.435Z,21.74
2022-08-17T05:22:17.804Z,21.74
2022-08-17T05:24:38.792Z,21.75
2022-08-17T05:26:49.676Z,21.76
2022-08-17T05:29:06.223Z,21.790001
2022-08-17T05:31:20.567Z,21.82
2022-08-17T05:33:36.011Z,21.879999
2022-08-17T05:35:53.376Z,21.940001
2022-08-17T05:38:07.779Z,22.01
2022-08-17T05:40:22.254Z,22.07
2022-08-17T05:42:39.600Z,22.120001
2022-08-17T05:44:54.069Z,22.15
2022-08-17T05:47:09.807Z,22.18
2022-08-17T05:49:22.874Z,22.219999
2022-08-17T05:51:37.348Z,22.25
2022-08-17T05:53:51.765Z,22.290001
2022-08-17T05:56:06.253Z,22.32
2022-08-17T05:58:23.607Z,22.370001
2022-08-17T06:00:41.946Z,22.43
2022-08-17T06:02:52.657Z,22.48
2022-08-17T06:05:06.889Z,22.530001
2022-08-17T06:07:21.379Z,22.57
2022-08-17T06:09:35.737Z,22.59
2022-08-17T06:11:53.385Z,22.6
2022-08-17T06:14:06.541Z,22.6
2022-08-17T06:16:26.099Z,22.58
2022-08-17T06:18:38.303Z,22.52
2022-08-17T06:20:52.717Z,22.459999
2022-08-17T06:23:07.156Z,22.4
2022-08-17T06:25:22.591Z,22.35
2022-08-17T06:27:37.093Z,22.32
2022-08-17T06:29:51.425Z,22.33
2022-08-17T06:32:05.795Z,22.4
2022-08-17T06:34:21.242Z,22.49
2022-08-17T06:36:35.582Z,22.58
2022-08-17T06:38:50.990Z,22.690001
2022-08-17T06:41:05.310Z,22.77
2022-08-17T06:43:19.826Z,22.83
2022-08-17T06:45:34.250Z,22.879999
2022-08-17T06:47:48.686Z,22.91
2022-08-17T06:50:03.075Z,22.93
2022-08-17T06:52:20.447Z,22.950001
2022-08-17T06:54:34.924Z,22.98
2022-08-17T06:56:52.898Z,22.99
2022-08-17T06:59:04.897Z,22.99
2022-08-17T07:01:19.382Z,23.01
2022-08-17T07:03:33.756Z,23.049999
2022-08-17T07:05:48.207Z,23.08
2022-08-17T07:08:04.578Z,23.120001
2022-08-17T07:10:18.928Z,23.190001
2022-08-17T07:12:33.366Z,23.280001
2022-08-17T07:14:47.866Z,23.370001
2022-08-17T07:17:02.315Z,23.469999
2022-08-17T07:19:16.776Z,23.549999
2022-08-17T07:21:31.180Z,23.620001
2022-08-17T07:23:45.642Z,23.66
2022-08-17T07:25:59.892Z,23.68
2022-08-17T07:28:14.331Z,23.66
2022-08-17T07:30:28.689Z,23.639999
2022-08-17T07:32:46.182Z,23.620001
2022-08-17T07:35:01.746Z,23.6
2022-08-17T07:37:18.066Z,23.559999
2022-08-17T07:39:32.590Z,23.51
2022-08-17T07:41:53.693Z,23.450001
2022-08-17T07:44:07.214Z,23.42
2022-08-17T07:46:21.571Z,23.389999
2022-08-17T07:48:35.988Z,23.370001
2022-08-17T07:50:50.772Z,23.360001
2022-08-17T07:53:04.728Z,23.360001
2022-08-17T07:55:19.139Z,23.370001
2022-08-17T07:57:33.549Z,23.41
2022-08-17T07:59:48.006Z,23.440001
2022-08-17T08:02:03.405Z,23.459999
2022-08-17T08:04:19.556Z,23.48
2022-08-17T08:06:37.242Z,23.49
2022-08-17T08:08:51.692Z,23.5
2022-08-17T08:11:06.158Z,23.51
2022-08-17T08:13:20.596Z,23.51
2022-08-17T08:15:34.982Z,23.48
2022-08-17T08:17:52.620Z,23.440001
2022-08-17T08:20:35.167Z,23.4
2022-08-17T08:22:24.989Z,23.379999
2022-08-17T08:24:39.456Z,23.370001
2022-08-17T08:26:53.839Z,23.370001
2022-08-17T08:29:08.323Z,23.360001
2022-08-17T08:31:23.801Z,23.33
2022-08-17T08:33:38.098Z,23.34
2022-08-17T08:35:52.468Z,23.379999
2022-08-17T08:38:06.858Z,23.440001
2022-08-17T08:40:21.262Z,23.5
2022-08-17T08:42:35.747Z,23.559999
2022-08-17T08:44:59.323Z,23.620001
2022-08-17T08:47:07.589Z,23.67
2022-08-17T08:49:33.985Z,23.719999
2022-08-17T08:51:39.348Z,23.74
2022-08-17T08:53:53.750Z,23.74
2022-08-17T08:56:08.143Z,23.73
2022-08-17T08:58:30.914Z,23.700001
2022-08-17T09:00:39.944Z,23.68
2022-08-17T09:02:54.389Z,23.629999
2022-08-17T09:05:16.262Z,23.58
2022-08-17T09:07:24.214Z,23.549999
2022-08-17T09:09:38.587Z,23.52
2022-08-17T09:12:00.987Z,23.49
2022-08-17T09:14:21.085Z,23.48
2022-08-17T09:16:27.715Z,23.469999
2022-08-17T09:18:59.659Z,23.43
2022-08-17T09:20:59.489Z,23.379999
2022-08-17T09:23:13.934Z,23.35
2022-08-17T09:25:28.372Z,23.35
2022-08-17T09:27:43.762Z,23.33
2022-08-17T09:29:58.108Z,23.299999
2022-08-17T09:32:12.907Z,23.299999
2022-08-17T09:34:28.229Z,23.309999
2022-08-17T09:36:42.718Z,23.32
2022-08-17T09:38:59.092Z,23.34
2022-08-17T09:41:13.553Z,23.34
2022-08-17T09:43:28.106Z,23.32
2022-08-17T09:45:42.549Z,23.290001
2022-08-17T09:47:56.968Z,23.25
2022-08-17T09:50:11.311Z,23.190001
2022-08-17T09:52:25.757Z,23.120001
2022-08-17T09:54:40.592Z,23.040001
2022-08-17T09:57:11.706Z,22.959999
2022-08-17T09:59:12.928Z,22.9
2022-08-17T10:01:27.558Z,22.860001
2022-08-17T10:03:41.859Z,22.83
2022-08-17T10:05:56.925Z,22.799999
2022-08-17T10:08:11.777Z,22.790001
2022-08-17T10:10:28.233Z,22.780001
2022-08-17T10:12:45.182Z,22.799999
2022-08-17T10:15:05.086Z,22.799999
2022-08-17T10:17:17.255Z,22.76
2022-08-17T10:19:31.778Z,22.780001
2022-08-17T10:21:46.173Z,22.83
2022-08-17T10:24:03.564Z,22.879999
2022-08-17T10:26:17.990Z,22.940001
2022-08-17T10:28:32.420Z,22.98
2022-08-17T10:30:46.884Z,23.01
2022-08-17T10:33:03.172Z,23.01
2022-08-17T10:35:17.820Z,23
2022-08-17T10:37:32.240Z,22.969999
2022-08-17T10:39:50.661Z,22.950001
2022-08-17T10:42:02.010Z,22.940001
2022-08-17T10:44:37.712Z,22.93
2022-08-17T10:46:33.839Z,22.93
2022-08-17T10:48:48.339Z,22.93
2022-08-17T10:51:02.947Z,22.93
2022-08-17T10:53:19.897Z,22.959999
2022-08-17T10:55:31.786Z,23.02
2022-08-17T10:57:47.158Z,23.040001
2022-08-17T11:00:01.486Z,23.09
2022-08-17T11:02:15.845Z,23.129999
2022-08-17T11:04:30.401Z,23.16
2022-08-17T11:06:44.786Z,23.18
2022-08-17T11:08:59.099Z,23.23
2022-08-17T11:11:13.549Z,23.26
2022-08-17T11:13:27.992Z,23.290001
2022-08-17T11:15:42.399Z,23.33
2022-08-17T11:17:57.774Z,23.35
2022-08-17T11:20:12.241Z,23.32
2022-08-17T11:22:29.953Z,23.27
2022-08-17T11:24:43.499Z,23.24
2022-08-17T11:26:56.444Z,23.23
2022-08-17T11:29:10.801Z,23.18
2022-08-17T11:31:38.170Z,23.110001
2022-08-17T11:33:43.479Z,23.049999
2022-08-17T11:35:57.820Z,23.030001
2022-08-17T11:38:16.170Z,23.01
2022-08-17T11:40:26.591Z,22.99
2022-08-17T11:42:40.949Z,22.98
2022-08-17T11:44:55.338Z,22.940001
2022-08-17T11:47:09.752Z,22.9
2022-08-17T11:49:24.095Z,22.870001
2022-08-17T11:51:38.466Z,22.799999
2022-08-17T11:54:03.717Z,22.74
2022-08-17T11:56:10.192Z,22.68
2022-08-17T11:58:24.605Z,22.620001
2022-08-17T12:00:39.047Z,22.57
2022-08-17T12:02:53.415Z,22.540001
2022-08-17T12:05:09.658Z,22.540001
2022-08-17T12:07:22.319Z,22.549999
2022-08-17T12:09:36.727Z,22.52
2022-08-17T12:11:54.877Z,22.48
2022-08-17T12:14:08.399Z,22.440001
2022-08-17T12:16:25.799Z,22.4
2022-08-17T12:18:40.358Z,22.370001
2022-08-17T12:20:56.807Z,22.309999
2022-08-17T12:23:09.161Z,22.219999
2022-08-17T12:25:23.549Z,22.129999
2022-08-17T12:27:46.301Z,22.049999
2022-08-17T12:29:55.427Z,21.969999
2022-08-17T12:32:09.900Z,21.93
2022-08-17T12:34:24.245Z,21.91
2022-08-17T12:36:38.650Z,21.91
2022-08-17T12:38:53.136Z,21.889999
2022-08-17T12:41:08.673Z,21.9
2022-08-17T12:43:23.120Z,21.9
2022-08-17T12:45:38.527Z,21.91
2022-08-17T12:47:53.947Z,21.92
2022-08-17T12:50:28.147Z,21.950001
2022-08-17T12:52:25.923Z,22.040001
2022-08-17T12:54:40.323Z,22.16
2022-08-17T12:56:54.762Z,22.26
2022-08-17T12:59:09.131Z,22.34
2022-08-17T13:01:26.569Z,22.4
2022-08-17T13:03:40.967Z,22.450001
2022-08-17T13:05:55.432Z,22.530001
2022-08-17T13:08:09.797Z,22.629999
2022-08-17T13:10:26.394Z,22.74
2022-08-17T13:12:40.659Z,22.799999
2022-08-17T13:14:55.015Z,22.82
2022-08-17T13:17:13.271Z,22.83
2022-08-17T13:19:29.964Z,22.84
2022-08-17T13:21:41.301Z,22.82
2022-08-17T13:23:55.871Z,22.809999
2022-08-17T13:26:10.288Z,22.82
2022-08-17T13:28:29.922Z,22.85
2022-08-17T13:30:42.000Z,22.9
2022-08-17T13:32:56.559Z,23
2022-08-17T13:35:21.528Z,23.120001
2022-08-17T13:37:30.305Z,23.23
2022-08-17T13:39:44.851Z,23.32
2022-08-17T13:41:59.302Z,23.43
2022-08-17T13:44:13.581Z,23.530001
2022-08-17T13:46:27.969Z,23.610001
2022-08-17T13:48:42.367Z,23.65
2022-08-17T13:50:56.747Z,23.65
2022-08-17T13:53:11.183Z,23.639999
2022-08-17T13:55:25.834Z,23.68
2022-08-17T13:57:40.311Z,23.9
2022-08-17T13:59:55.832Z,24.26
2022-08-17T14:02:09.206Z,24.610001
2022-08-17T14:04:23.577Z,24.93
2022-08-17T14:06:49.409Z,25.290001
2022-08-17T14:08:55.246Z,25.74
2022-08-17T14:11:09.712Z,26
2022-08-17T14:13:24.084Z,26.129999
2022-08-17T14:15:55.520Z,26.33
2022-08-17T14:17:55.764Z,26.690001
2022-08-17T14:20:10.168Z,27.01
2022-08-17T14:22:25.530Z,27.219999
2022-08-17T14:24:44.568Z,27.440001
2022-08-17T14:26:55.260Z,27.639999
2022-08-17T14:29:12.592Z,27.879999
2022-08-17T14:31:25.015Z,28.049999
2022-08-17T14:33:42.328Z,28.15
2022-08-17T14:35:56.830Z,28.219999
2022-08-17T14:38:11.377Z,28.16
2022-08-17T14:40:25.773Z,27.969999
2022-08-17T14:42:40.205Z,27.73
2022-08-17T14:44:55.593Z,27.49
2022-08-17T14:47:09.955Z,27.32
2022-08-17T14:49:24.375Z,27.35
2022-08-17T14:51:39.365Z,27.440001
2022-08-17T14:53:54.060Z,27.6
2022-08-17T14:56:08.464Z,27.77
2022-08-17T14:58:22.957Z,27.969999
2022-08-17T15:00:37.501Z,28.280001
2022-08-17T15:02:51.917Z,28.65
2022-08-17T15:05:06.357Z,28.879999
2022-08-17T15:07:20.773Z,29.040001
2022-08-17T15:09:38.124Z,29.200001
2022-08-17T15:11:53.550Z,29.379999
2022-08-17T15:14:07.947Z,29.33
2022-08-17T15:16:22.314Z,29.09
2022-08-17T15:18:36.668Z,28.790001
2022-08-17T15:20:51.520Z,28.459999
2022-08-17T15:23:05.994Z,28.139999
2022-08-17T15:25:21.787Z,27.879999
2022-08-17T15:27:36.188Z,27.700001
2022-08-17T15:29:50.765Z,27.58
2022-08-17T15:32:06.138Z,27.59
2022-08-17T15:34:20.590Z,27.75
2022-08-17T15:36:34.991Z,27.83
2022-08-17T15:38:52.364Z,27.85
2022-08-17T15:41:06.953Z,27.879999
2022-08-17T15:43:26.642Z,28.059999
2022-08-17T15:45:36.695Z,28.190001
2022-08-17T15:47:52.107Z,28.200001
2022-08-17T15:50:06.302Z,28.16
2022-08-17T15:52:20.878Z,28.15
2022-08-17T15:54:36.011Z,28.33
2022-08-17T15:56:51.868Z,28.629999
2022-08-17T15:59:06.326Z,28.940001
2022-08-17T16:02:24.753Z,29.23
2022-08-17T16:03:46.707Z,29.42
2022-08-17T16:05:55.414Z,29.559999
2022-08-17T16:08:09.744Z,29.549999
2022-08-17T16:10:34.929Z,29.530001
2022-08-17T16:12:43.445Z,29.389999
2022-08-17T16:14:57.779Z,29.1
2022-08-17T16:17:29.674Z,28.83
2022-08-17T16:19:29.557Z,28.790001
2022-08-17T16:21:44.056Z,28.92
2022-08-17T16:23:58.373Z,29.110001
2022-08-17T16:26:12.742Z,29.27
2022-08-17T16:28:35.606Z,29.370001
2022-08-17T16:30:44.790Z,29.459999
2022-08-17T16:32:59.209Z,29.59
2022-08-17T16:35:13.605Z,29.67
2022-08-17T16:37:27.935Z,29.51
2022-08-17T16:39:43.429Z,29.280001
2022-08-17T16:41:57.857Z,29.120001
2022-08-17T16:44:15.176Z,28.959999
2022-08-17T16:46:26.664Z,28.85
2022-08-17T16:48:41.063Z,28.85
2022-08-17T16:51:02.035Z,28.84
2022-08-17T16:53:11.999Z,28.91
2022-08-17T16:55:26.889Z,29.01
2022-08-17T16:57:47.636Z,29.110001
2022-08-17T16:59:57.760Z,29.209999
2022-08-17T17:02:12.110Z,29.290001
2022-08-17T17:04:26.509Z,29.35
2022-08-17T17:06:42.909Z,29.379999
2022-08-17T17:08:57.262Z,29.370001
2022-08-17T17:11:11.637Z,29.33
2022-08-17T17:13:26.020Z,29.290001
2022-08-17T17:15:41.419Z,29.209999
2022-08-17T17:17:55.730Z,29.08
2022-08-17T17:20:13.087Z,28.889999
2022-08-17T17:22:27.466Z,28.67
2022-08-17T17:24:41.835Z,28.48
2022-08-17T17:26:58.249Z,28.290001
2022-08-17T17:29:15.660Z,28.110001
2022-08-17T17:31:30.239Z,27.950001
2022-08-17T17:33:44.635Z,27.790001
2022-08-17T17:35:59.056Z,27.639999
2022-08-17T17:38:13.400Z,27.51
2022-08-17T17:40:27.874Z,27.389999
2022-08-17T17:42:42.344Z,27.27
2022-08-17T17:44:56.877Z,27.16
2022-08-17T17:47:11.235Z,27.040001
2022-08-17T17:49:26.617Z,26.91
2022-08-17T17:51:45.659Z,26.76
2022-08-17T17:53:58.514Z,26.629999
2022-08-17T17:56:17.177Z,26.49
2022-08-17T17:58:30.318Z,26.360001
2022-08-17T18:00:44.682Z,26.24
2022-08-17T18:02:59.051Z,26.120001
2022-08-17T18:05:13.420Z,25.99
2022-08-17T18:07:27.803Z,25.870001
2022-08-17T18:09:43.194Z,25.75
2022-08-17T18:12:00.553Z,25.629999
2022-08-17T18:14:15.001Z,25.530001
2022-08-17T18:16:29.310Z,25.42
2022-08-17T18:18:43.701Z,25.290001
2022-08-17T18:20:58.087Z,25.16
2022-08-17T18:23:12.463Z,25.030001
2022-08-17T18:25:26.881Z,24.93
2022-08-17T18:27:41.276Z,24.85
2022-08-17T18:29:55.633Z,24.77
2022-08-17T18:32:12.035Z,24.700001
2022-08-17T18:34:46.331Z,24.639999
2022-08-17T18:36:43.851Z,24.59
2022-08-17T18:38:58.350Z,24.540001
2022-08-17T18:41:13.936Z,24.48
2022-08-17T18:43:36.575Z,24.42
2022-08-17T18:45:50.655Z,24.35
2022-08-17T18:48:05.177Z,24.290001
2022-08-17T18:50:20.070Z,24.219999
2022-08-17T18:52:34.911Z,24.139999
2022-08-17T18:54:49.445Z,24.07
2022-08-17T18:57:03.826Z,24
2022-08-17T18:59:19.536Z,23.93
2022-08-17T19:01:41.647Z,23.870001
2022-08-17T19:03:51.381Z,23.809999
2022-08-17T19:06:05.808Z,23.76
2022-08-17T19:08:20.947Z,23.709999
2022-08-17T19:10:46.032Z,23.67
2022-08-17T19:12:52.702Z,23.629999
2022-08-17T19:15:09.079Z,23.58
2022-08-17T19:17:23.507Z,23.52
2022-08-17T19:19:38.011Z,23.450001
2022-08-17T19:21:52.430Z,23.389999
2022-08-17T19:24:06.753Z,23.32
2022-08-17T19:26:23.367Z,23.25
2022-08-17T19:28:38.572Z,23.190001
2022-08-17T19:30:55.942Z,23.139999
2022-08-17T19:33:10.310Z,23.110001
2022-08-17T19:35:25.895Z,23.059999
2022-08-17T19:37:40.233Z,23.01
2022-08-17T19:39:54.704Z,22.959999
2022-08-17T19:42:10.058Z,22.92
2022-08-17T19:44:24.423Z,22.889999
2022-08-17T19:46:39.238Z,22.860001
2022-08-17T19:48:56.229Z,22.809999
2022-08-17T19:51:10.615Z,22.74
2022-08-17T19:53:33.178Z,22.68
2022-08-17T19:55:42.528Z,22.620001
2022-08-17T19:57:57.986Z,22.57
2022-08-17T20:00:12.434Z,22.540001
2022-08-17T20:02:26.874Z,22.52
2022-08-17T20:04:41.210Z,22.5
2022-08-17T20:06:55.601Z,22.49
2022-08-17T20:09:14.733Z,22.48
2022-08-17T20:11:25.477Z,22.48
2022-08-17T20:13:39.812Z,22.48
2022-08-17T20:15:54.219Z,22.469999
2022-08-17T20:18:08.679Z,22.450001
2022-08-17T20:20:23.327Z,22.43
2022-08-17T20:22:49.750Z,22.41
2022-08-17T20:24:56.000Z,22.370001
2022-08-17T20:27:10.304Z,22.299999
2022-08-17T20:29:36.942Z,22.24
2022-08-17T20:31:43.191Z,22.18
2022-08-17T20:33:57.610Z,22.139999
2022-08-17T20:36:13.058Z,22.110001
2022-08-17T20:38:27.473Z,22.09
2022-08-17T20:40:41.901Z,22.09
2022-08-17T20:42:57.252Z,22.09
2022-08-17T20:45:11.651Z,22.09
2022-08-17T20:47:27.432Z,22.09
2022-08-17T20:49:40.514Z,22.09
2022-08-17T20:52:01.110Z,22.08
2022-08-17T20:54:11.242Z,22.059999
2022-08-17T20:56:26.232Z,22.02
2022-08-17T20:58:41.316Z,21.959999
2022-08-17T21:00:56.374Z,21.889999
2022-08-17T21:03:11.506Z,21.83
2022-08-17T21:05:27.869Z,21.780001
2022-08-17T21:07:44.674Z,21.74
2022-08-17T21:10:00.043Z,21.709999
2022-08-17T21:12:17.208Z,21.700001
2022-08-17T21:14:32.521Z,21.690001
2022-08-17T21:16:47.685Z,21.67
2022-08-17T21:19:03.095Z,21.67
2022-08-17T21:21:17.942Z,21.690001
2022-08-17T21:23:31.834Z,21.709999
2022-08-17T21:25:46.423Z,21.709999
2022-08-17T21:28:00.826Z,21.68
